LIM weather

Jorge Chávez International Airport
Lima, Lima Region, Perú

Public forecast

Using degrees Celsius for public forecast. Weather courtesy of forecast.io.

METAR (pilot weather report)

Retrieved 2019/05/26 04:00 UTC (23 minutes ago):

SPJC 260400Z 18005KT 7000 -DZ BKN004 OVC010 17/17 Q1015 NOSIG RMK PPTRZ

TAF (pilot weather forecast)

Forecast is more than 12 hours old.

Retrieved 2019/05/25 00:49 UTC (1 day ago):

TAF SPJC 252300Z 2600/2624 17008KT 9999 SCT008 OVC020 TX20/2619Z TN17/2611Z TEMPO 2600/2604 BKN008 BKN017 TEMPO 2610/2612 5000 BR OVC014 FM261600 18010KT 9999 OVC020